createdAt,value
2022-10-30T00:00:04.823Z,11.61
2022-10-30T00:02:31.570Z,11.57
2022-10-30T00:04:58.150Z,11.57
2022-10-30T00:07:24.697Z,11.65
2022-10-30T00:09:51.273Z,11.65
2022-10-30T00:12:17.819Z,11.63
2022-10-30T00:14:44.369Z,11.63
2022-10-30T00:17:10.951Z,11.55
2022-10-30T00:19:37.523Z,11.48
2022-10-30T00:24:30.071Z,11.57
2022-10-30T00:26:56.654Z,11.58
2022-10-30T00:29:26.402Z,11.58
2022-10-30T00:31:53.563Z,11.52
2022-10-30T00:34:20.162Z,11.56
2022-10-30T00:36:46.880Z,11.50
2022-10-30T00:39:13.463Z,11.48
2022-10-30T00:41:41.656Z,11.45
2022-10-30T00:44:47.493Z,11.44
2022-10-30T00:47:36.370Z,11.41
2022-10-30T00:50:24.742Z,11.35
2022-10-30T00:53:05.218Z,11.29
2022-10-30T00:55:49.513Z,11.35
2022-10-30T00:58:19.710Z,11.36
2022-10-30T01:00:50.781Z,11.35
2022-10-30T01:03:20.611Z,11.31
2022-10-30T01:05:52.180Z,11.30
2022-10-30T01:08:19.469Z,11.22
2022-10-30T01:10:48.118Z,11.14
2022-10-30T01:13:15.923Z,11.11
2022-10-30T01:16:11.753Z,11.14
2022-10-30T01:18:53.316Z,11.09
2022-10-30T01:21:33.929Z,10.96
2022-10-30T01:24:08.446Z,10.94
2022-10-30T01:26:55.633Z,11.00
2022-10-30T01:29:35.476Z,10.92
2022-10-30T01:32:39.334Z,10.95
2022-10-30T01:35:23.629Z,10.85
2022-10-30T01:38:32.081Z,10.87
2022-10-30T01:40:58.641Z,10.85
2022-10-30T01:43:25.168Z,10.81
2022-10-30T01:46:19.602Z,10.77
2022-10-30T01:49:16.908Z,10.80
2022-10-30T01:51:54.750Z,10.72
2022-10-30T01:54:40.693Z,10.61
2022-10-30T01:57:20.757Z,10.62
2022-10-30T02:00:07.281Z,10.66
2022-10-30T02:02:34.291Z,10.66
2022-10-30T02:05:01.316Z,10.61
2022-10-30T02:07:27.889Z,10.63
2022-10-30T02:09:55.086Z,10.61
2022-10-30T02:12:22.989Z,10.61
2022-10-30T02:14:56.791Z,10.57
2022-10-30T02:17:23.952Z,10.51
2022-10-30T02:19:50.610Z,10.47
2022-10-30T02:22:18.120Z,10.51
2022-10-30T02:24:45.169Z,10.49
2022-10-30T02:27:12.008Z,10.47
2022-10-30T02:29:38.725Z,10.42
2022-10-30T02:32:05.301Z,10.45
2022-10-30T02:34:31.896Z,10.49
2022-10-30T02:36:58.449Z,10.48
2022-10-30T02:39:25.035Z,10.50
2022-10-30T02:41:51.593Z,10.50
2022-10-30T02:44:18.184Z,10.45
2022-10-30T02:46:44.732Z,10.46
2022-10-30T02:49:11.247Z,10.37
2022-10-30T02:51:37.871Z,10.38
2022-10-30T02:54:04.415Z,10.43
2022-10-30T02:56:31.039Z,10.39
2022-10-30T02:58:57.614Z,10.43
2022-10-30T03:01:24.443Z,10.42
2022-10-30T03:03:51.436Z,10.39
2022-10-30T03:06:18.403Z,10.29
2022-10-30T03:08:45.608Z,10.34
2022-10-30T03:11:17.273Z,10.41
2022-10-30T03:13:45.285Z,10.43
2022-10-30T03:16:14.572Z,10.44
2022-10-30T03:18:41.532Z,10.36
2022-10-30T03:21:11.202Z,10.35
2022-10-30T03:23:38.162Z,10.39
2022-10-30T03:26:05.202Z,10.36
2022-10-30T03:28:32.360Z,10.34
2022-10-30T03:31:06.970Z,10.36
2022-10-30T03:33:34.359Z,10.28
2022-10-30T03:36:01.597Z,10.36
2022-10-30T03:38:28.143Z,10.31
2022-10-30T03:40:54.808Z,10.30
2022-10-30T03:43:21.672Z,10.28
2022-10-30T03:45:53.444Z,10.33
2022-10-30T03:48:21.980Z,10.38
2022-10-30T03:50:49.039Z,10.37
2022-10-30T03:53:15.752Z,10.33
2022-10-30T03:55:42.307Z,10.27
2022-10-30T03:58:08.872Z,10.21
2022-10-30T04:00:36.100Z,10.23
2022-10-30T04:03:07.048Z,10.26
2022-10-30T04:05:33.953Z,10.22
2022-10-30T04:08:03.099Z,10.29
2022-10-30T04:10:29.750Z,10.29
2022-10-30T04:13:07.417Z,10.25
2022-10-30T04:15:34.027Z,10.26
2022-10-30T04:18:01.665Z,10.21
2022-10-30T04:20:29.436Z,10.24
2022-10-30T04:23:01.155Z,10.14
2022-10-30T04:25:29.215Z,10.16
2022-10-30T04:27:56.439Z,10.20
2022-10-30T04:30:25.543Z,10.14
2022-10-30T04:32:54.299Z,10.12
2022-10-30T04:35:24.441Z,10.14
2022-10-30T04:37:58.215Z,10.11
2022-10-30T04:40:27.032Z,10.04
2022-10-30T04:42:53.789Z,10.04
2022-10-30T04:45:20.678Z,10.04
2022-10-30T04:47:47.626Z,10.10
2022-10-30T04:50:15.099Z,10.05
2022-10-30T04:52:41.886Z,10.07
2022-10-30T04:55:10.055Z,10.07
2022-10-30T04:57:37.089Z,10.06
2022-10-30T05:00:08.373Z,10.07
2022-10-30T05:02:36.983Z,10.10
2022-10-30T05:05:04.435Z,10.07
2022-10-30T05:07:31.242Z,10.13
2022-10-30T05:09:57.841Z,10.19
2022-10-30T05:12:24.791Z,10.15
2022-10-30T05:14:51.388Z,10.16
2022-10-30T05:17:17.990Z,10.18
2022-10-30T05:19:44.630Z,10.19
2022-10-30T05:22:11.272Z,10.23
2022-10-30T05:24:37.834Z,10.38
2022-10-30T05:27:04.460Z,10.44
2022-10-30T05:29:31.078Z,10.54
2022-10-30T05:31:57.638Z,10.55
2022-10-30T05:34:24.175Z,10.56
2022-10-30T05:36:50.720Z,10.65
2022-10-30T05:39:17.280Z,10.71
2022-10-30T05:41:43.833Z,10.82
2022-10-30T05:44:10.408Z,10.84
2022-10-30T05:46:37.015Z,10.95
2022-10-30T05:49:04.007Z,11.06
2022-10-30T05:51:30.649Z,11.12
2022-10-30T05:53:57.260Z,11.22
2022-10-30T05:56:23.871Z,11.24
2022-10-30T05:58:50.502Z,11.37
2022-10-30T06:01:17.458Z,11.55
2022-10-30T06:03:44.392Z,11.67
2022-10-30T06:06:10.984Z,11.76
2022-10-30T06:08:37.813Z,11.90
2022-10-30T06:11:04.368Z,12.00
2022-10-30T06:13:30.928Z,12.14
2022-10-30T06:15:57.540Z,12.14
2022-10-30T06:18:24.360Z,12.25
2022-10-30T06:20:50.979Z,12.27
2022-10-30T06:23:17.624Z,12.20
2022-10-30T06:25:44.253Z,12.38
2022-10-30T06:28:11.492Z,12.42
2022-10-30T06:30:38.181Z,12.32
2022-10-30T06:33:05.799Z,12.42
2022-10-30T06:35:32.691Z,12.33
2022-10-30T06:38:00.403Z,12.07
2022-10-30T06:40:28.317Z,12.22
2022-10-30T06:42:55.804Z,12.18
2022-10-30T06:45:23.884Z,12.23
2022-10-30T06:47:50.853Z,12.23
2022-10-30T06:50:20.269Z,12.15
2022-10-30T06:52:46.906Z,12.14
2022-10-30T06:55:13.553Z,12.33
2022-10-30T06:57:40.165Z,12.25
2022-10-30T07:00:08.284Z,12.07
2022-10-30T07:02:34.949Z,12.37
2022-10-30T07:05:01.749Z,12.52
2022-10-30T07:07:29.277Z,12.65
2022-10-30T07:09:55.868Z,12.60
2022-10-30T07:12:22.421Z,12.85
2022-10-30T07:14:49.031Z,12.84
2022-10-30T07:17:15.678Z,12.75
2022-10-30T07:19:42.234Z,12.90
2022-10-30T07:22:08.792Z,13.14
2022-10-30T07:24:35.314Z,13.46
2022-10-30T07:27:01.847Z,13.69
2022-10-30T07:29:28.375Z,13.94
2022-10-30T07:32:03.145Z,13.94
2022-10-30T07:34:30.708Z,14.04
2022-10-30T07:36:57.405Z,14.23
2022-10-30T07:39:24.047Z,14.27
2022-10-30T07:41:50.799Z,14.32
2022-10-30T07:44:17.584Z,14.45
2022-10-30T07:46:44.275Z,14.40
2022-10-30T07:49:11.023Z,14.71
2022-10-30T07:51:37.796Z,14.79
2022-10-30T07:54:04.378Z,14.83
2022-10-30T07:56:30.914Z,14.91
2022-10-30T07:58:57.520Z,15.00
2022-10-30T08:01:24.126Z,15.09
2022-10-30T08:03:50.805Z,15.21
2022-10-30T08:06:20.131Z,15.38
2022-10-30T08:08:49.762Z,15.55
2022-10-30T08:11:16.364Z,15.48
2022-10-30T08:13:43.047Z,15.59
2022-10-30T08:16:09.646Z,15.69
2022-10-30T08:18:36.283Z,15.80
2022-10-30T08:21:02.918Z,15.81
2022-10-30T08:23:29.469Z,16.08
2022-10-30T08:26:00.494Z,16.22
2022-10-30T08:28:31.578Z,16.36
2022-10-30T08:31:01.174Z,16.48
2022-10-30T08:33:28.395Z,16.60
2022-10-30T08:35:57.889Z,16.82
2022-10-30T08:38:25.318Z,16.93
2022-10-30T08:40:52.498Z,17.15
2022-10-30T08:43:19.373Z,17.27
2022-10-30T08:45:46.057Z,17.28
2022-10-30T08:48:14.803Z,17.44
2022-10-30T08:50:41.579Z,17.64
2022-10-30T08:53:10.931Z,17.67
2022-10-30T08:55:37.733Z,17.76
2022-10-30T08:58:04.708Z,17.84
2022-10-30T09:00:31.306Z,18.26
2022-10-30T09:02:58.304Z,18.93
2022-10-30T09:05:25.609Z,19.12
2022-10-30T09:07:57.512Z,19.24
2022-10-30T09:10:24.511Z,19.45
2022-10-30T09:12:56.061Z,20.06
2022-10-30T09:15:23.149Z,20.32
2022-10-30T09:17:58.949Z,20.84
2022-10-30T09:20:26.213Z,21.00
2022-10-30T09:22:52.852Z,21.48
2022-10-30T09:25:19.958Z,21.26
2022-10-30T09:27:47.062Z,21.01
2022-10-30T09:30:14.380Z,20.85
2022-10-30T09:32:40.988Z,20.50
2022-10-30T09:35:08.284Z,19.74
2022-10-30T09:37:39.122Z,19.87
2022-10-30T09:40:07.344Z,20.19
2022-10-30T09:42:46.204Z,20.38
2022-10-30T09:45:29.805Z,20.40
2022-10-30T09:48:23.231Z,20.61
2022-10-30T09:51:11.034Z,20.80
2022-10-30T09:53:49.654Z,21.71
2022-10-30T09:56:24.022Z,22.89
2022-10-30T09:58:50.569Z,23.98
2022-10-30T10:01:22.305Z,24.68
2022-10-30T10:03:48.999Z,24.39
2022-10-30T10:06:21.084Z,23.64
2022-10-30T10:09:03.896Z,22.81
2022-10-30T10:11:37.188Z,22.87
2022-10-30T10:14:08.734Z,23.00
2022-10-30T10:16:40.304Z,22.95
2022-10-30T10:19:26.207Z,23.04
2022-10-30T10:22:01.177Z,23.13
2022-10-30T10:24:34.529Z,23.46
2022-10-30T10:27:25.897Z,23.43
2022-10-30T10:30:06.789Z,23.72
2022-10-30T10:32:45.172Z,24.07
2022-10-30T10:35:34.657Z,24.19
2022-10-30T10:38:36.145Z,24.72
2022-10-30T10:41:36.345Z,24.85
2022-10-30T10:44:24.012Z,25.12
2022-10-30T10:46:56.628Z,25.21
2022-10-30T10:49:34.522Z,25.34
2022-10-30T10:52:19.040Z,25.26
2022-10-30T10:55:09.909Z,25.75
2022-10-30T10:57:40.663Z,25.90
2022-10-30T11:00:17.945Z,26.34
2022-10-30T11:02:56.365Z,27.22
2022-10-30T11:05:31.301Z,28.63
2022-10-30T11:08:03.893Z,30.32
2022-10-30T11:10:30.494Z,31.58
2022-10-30T11:12:57.504Z,32.64
2022-10-30T11:15:35.346Z,34.44
2022-10-30T11:20:52.023Z,36.77
2022-10-30T11:23:33.910Z,37.12
2022-10-30T11:26:02.521Z,37.51
2022-10-30T11:28:39.085Z,36.95
2022-10-30T11:31:41.132Z,37.65
2022-10-30T11:34:20.128Z,37.43
2022-10-30T11:36:51.457Z,38.27
2022-10-30T11:39:19.253Z,38.44
2022-10-30T11:41:56.020Z,38.31
2022-10-30T11:44:27.435Z,38.59
2022-10-30T11:46:54.868Z,39.23
2022-10-30T11:49:32.953Z,39.15
2022-10-30T11:52:00.479Z,39.39
2022-10-30T11:54:27.667Z,38.89
2022-10-30T11:56:55.291Z,37.11
2022-10-30T11:59:24.672Z,35.85
2022-10-30T12:02:04.343Z,35.49
2022-10-30T12:04:32.992Z,35.10
2022-10-30T12:07:14.994Z,34.02
2022-10-30T12:09:43.644Z,33.46
2022-10-30T12:12:32.971Z,32.79
2022-10-30T12:15:36.043Z,31.74
2022-10-30T12:18:05.247Z,31.49
2022-10-30T12:20:33.780Z,31.27
2022-10-30T12:23:20.639Z,31.13
2022-10-30T12:25:49.364Z,31.10
2022-10-30T12:28:25.161Z,30.74
2022-10-30T12:31:09.138Z,30.52
2022-10-30T12:33:51.527Z,30.26
2022-10-30T12:36:21.785Z,30.48
2022-10-30T12:39:12.339Z,30.61
2022-10-30T12:41:58.869Z,30.40
2022-10-30T12:44:32.263Z,30.14
2022-10-30T12:47:04.520Z,29.49
2022-10-30T12:49:36.898Z,29.10
2022-10-30T12:52:12.726Z,28.24
2022-10-30T12:55:03.486Z,27.96
2022-10-30T12:57:38.925Z,28.07
2022-10-30T13:00:16.930Z,28.35
2022-10-30T13:02:51.625Z,28.58
2022-10-30T13:05:43.118Z,28.93
2022-10-30T13:08:30.820Z,29.43
2022-10-30T13:11:09.306Z,30.03
2022-10-30T13:13:39.600Z,30.50
2022-10-30T13:16:36.137Z,31.03
2022-10-30T13:19:03.823Z,31.00
2022-10-30T13:22:06.334Z,31.82
2022-10-30T13:24:38.811Z,32.24
2022-10-30T13:27:12.183Z,30.62
2022-10-30T13:29:41.681Z,28.56
2022-10-30T13:32:26.910Z,27.76
2022-10-30T13:34:59.376Z,26.83
2022-10-30T13:38:03.001Z,26.33
2022-10-30T13:40:50.371Z,25.67
2022-10-30T13:43:19.685Z,25.31
2022-10-30T13:46:14.972Z,25.02
2022-10-30T13:48:58.063Z,24.86
2022-10-30T13:51:52.615Z,24.54
2022-10-30T13:54:23.178Z,24.38
2022-10-30T13:56:52.027Z,24.27
2022-10-30T13:59:39.753Z,24.03
2022-10-30T14:02:25.156Z,24.02
2022-10-30T14:05:01.856Z,23.95
2022-10-30T14:07:51.285Z,23.89
2022-10-30T14:10:39.083Z,23.73
2022-10-30T14:13:35.669Z,23.59
2022-10-30T14:16:07.742Z,23.54
2022-10-30T14:18:45.225Z,23.45
2022-10-30T14:21:42.732Z,23.28
2022-10-30T14:24:16.971Z,23.26
2022-10-30T14:26:52.682Z,23.10
2022-10-30T14:29:34.965Z,22.94
2022-10-30T14:32:18.102Z,22.79
2022-10-30T14:34:50.922Z,22.65
2022-10-30T14:37:23.289Z,22.55
2022-10-30T14:39:51.628Z,22.39
2022-10-30T14:42:28.040Z,22.20
2022-10-30T14:45:15.795Z,21.98
2022-10-30T14:48:22.431Z,21.78
2022-10-30T14:51:05.686Z,21.61
2022-10-30T14:53:50.980Z,21.48
2022-10-30T14:59:21.461Z,21.16
2022-10-30T15:01:55.195Z,21.00
2022-10-30T15:04:40.401Z,20.78
2022-10-30T15:07:48.810Z,20.52
2022-10-30T15:10:29.180Z,20.36
2022-10-30T15:13:21.964Z,20.15
2022-10-30T15:16:05.329Z,20.01
2022-10-30T15:18:32.416Z,19.80
2022-10-30T15:21:06.106Z,19.74
2022-10-30T15:23:37.350Z,19.66
2022-10-30T15:26:17.069Z,19.51
2022-10-30T15:28:43.941Z,19.36
2022-10-30T15:31:25.650Z,19.31
2022-10-30T15:33:57.763Z,19.24
2022-10-30T15:36:34.631Z,19.05
2022-10-30T15:39:14.782Z,18.89
2022-10-30T15:41:41.312Z,18.78
2022-10-30T15:44:08.041Z,18.68
2022-10-30T15:46:34.887Z,18.76
2022-10-30T15:49:01.495Z,18.71
2022-10-30T15:51:28.312Z,18.59
2022-10-30T15:53:56.532Z,18.53
2022-10-30T15:57:08.075Z,18.43
2022-10-30T15:59:32.863Z,18.31
2022-10-30T16:01:59.896Z,18.31
2022-10-30T16:04:32.173Z,18.23
2022-10-30T16:07:11.425Z,18.21
2022-10-30T16:09:37.988Z,18.09
2022-10-30T16:12:07.768Z,18.09
2022-10-30T16:14:38.282Z,18.03
2022-10-30T16:17:04.907Z,18.06
2022-10-30T16:19:49.380Z,18.06
2022-10-30T16:22:25.501Z,17.97
2022-10-30T16:24:53.081Z,17.92
2022-10-30T16:27:21.949Z,17.97
2022-10-30T16:30:13.778Z,17.98
2022-10-30T16:32:41.428Z,17.93
2022-10-30T16:35:11.162Z,17.86
2022-10-30T16:37:40.790Z,17.78
2022-10-30T16:40:16.988Z,17.74
2022-10-30T16:42:52.846Z,17.80
2022-10-30T16:45:19.527Z,17.69
2022-10-30T16:47:51.473Z,17.68
2022-10-30T16:50:19.969Z,17.56
2022-10-30T16:52:46.656Z,17.54
2022-10-30T16:55:19.747Z,17.53
2022-10-30T16:57:50.320Z,17.51
2022-10-30T17:00:35.479Z,17.40
2022-10-30T17:03:09.680Z,17.42
2022-10-30T17:05:38.127Z,17.29
2022-10-30T17:08:25.319Z,17.35
2022-10-30T17:10:59.494Z,17.35
2022-10-30T17:13:42.845Z,17.27
2022-10-30T17:16:25.554Z,17.17
2022-10-30T17:18:54.340Z,17.19
2022-10-30T17:21:29.368Z,17.16
2022-10-30T17:24:00.007Z,17.02
2022-10-30T17:26:28.700Z,17.06
2022-10-30T17:28:55.546Z,17.00
2022-10-30T17:31:29.645Z,16.94
2022-10-30T17:34:16.568Z,16.94
2022-10-30T17:36:43.537Z,16.88
2022-10-30T17:39:10.134Z,16.86
2022-10-30T17:41:36.905Z,16.79
2022-10-30T17:44:05.381Z,16.77
2022-10-30T17:46:32.240Z,16.69
2022-10-30T17:48:59.535Z,16.72
2022-10-30T17:51:26.508Z,16.77
2022-10-30T17:53:53.566Z,16.75
2022-10-30T17:56:25.087Z,16.72
2022-10-30T17:58:51.726Z,16.59
2022-10-30T18:01:25.177Z,16.57
2022-10-30T18:03:55.128Z,16.57
2022-10-30T18:06:25.727Z,16.51
2022-10-30T18:08:53.331Z,16.46
2022-10-30T18:11:23.250Z,16.33
2022-10-30T18:13:51.332Z,16.30
2022-10-30T18:16:19.220Z,16.23
2022-10-30T18:18:46.114Z,16.15
2022-10-30T18:21:18.237Z,16.26
2022-10-30T18:23:53.674Z,16.21
2022-10-30T18:26:25.931Z,16.20
2022-10-30T18:28:53.113Z,16.14
2022-10-30T18:31:24.425Z,16.06
2022-10-30T18:33:51.527Z,16.04
2022-10-30T18:36:20.658Z,16.12
2022-10-30T18:38:47.647Z,16.04
2022-10-30T18:41:21.372Z,15.95
2022-10-30T18:43:47.919Z,16.00
2022-10-30T18:46:15.169Z,16.01
2022-10-30T18:48:41.957Z,15.89
2022-10-30T18:51:22.297Z,15.99
2022-10-30T18:53:52.207Z,15.89
2022-10-30T18:56:27.088Z,15.82
2022-10-30T18:58:58.603Z,15.78
2022-10-30T19:01:30.815Z,15.82
2022-10-30T19:04:00.998Z,15.82
2022-10-30T19:06:27.939Z,15.80
2022-10-30T19:08:54.485Z,15.79
2022-10-30T19:11:24.656Z,15.76
2022-10-30T19:13:54.275Z,15.72
2022-10-30T19:16:21.708Z,15.68
2022-10-30T19:18:48.753Z,15.63
2022-10-30T19:21:25.030Z,15.57
2022-10-30T19:23:51.617Z,15.56
2022-10-30T19:26:18.237Z,15.65
2022-10-30T19:28:45.488Z,15.73
2022-10-30T19:31:17.156Z,15.76
2022-10-30T19:33:44.328Z,15.71
2022-10-30T19:36:28.420Z,15.73
2022-10-30T19:38:56.071Z,15.62
2022-10-30T19:41:24.862Z,15.60
2022-10-30T19:43:53.211Z,15.68
2022-10-30T19:46:20.742Z,15.64
2022-10-30T19:48:57.235Z,15.66
2022-10-30T19:51:25.359Z,15.68
2022-10-30T19:53:53.754Z,15.73
2022-10-30T19:56:20.957Z,15.77
2022-10-30T19:58:47.721Z,15.67
2022-10-30T20:01:14.673Z,15.64
2022-10-30T20:03:41.516Z,15.69
2022-10-30T20:06:11.734Z,15.69
2022-10-30T20:08:38.280Z,15.64
2022-10-30T20:11:04.980Z,15.62
2022-10-30T20:13:33.256Z,15.63
2022-10-30T20:16:02.568Z,15.58
2022-10-30T20:18:31.622Z,15.76
2022-10-30T20:21:00.999Z,15.74
2022-10-30T20:23:27.974Z,15.75
2022-10-30T20:25:58.672Z,15.72
2022-10-30T20:28:29.522Z,15.70
2022-10-30T20:30:56.185Z,15.69
2022-10-30T20:33:23.487Z,15.63
2022-10-30T20:35:50.620Z,15.67
2022-10-30T20:38:20.632Z,15.66
2022-10-30T20:40:48.689Z,15.64
2022-10-30T20:43:17.914Z,15.58
2022-10-30T20:45:44.528Z,15.63
2022-10-30T20:48:12.500Z,15.59
2022-10-30T20:50:40.992Z,15.51
2022-10-30T20:53:12.435Z,15.54
2022-10-30T20:55:39.739Z,15.48
2022-10-30T20:58:06.871Z,15.45
2022-10-30T21:00:33.656Z,15.55
2022-10-30T21:03:05.110Z,15.55
2022-10-30T21:05:44.986Z,15.54
2022-10-30T21:08:15.152Z,15.55
2022-10-30T21:10:42.490Z,15.50
2022-10-30T21:13:10.749Z,15.54
2022-10-30T21:15:39.933Z,15.49
2022-10-30T21:18:07.057Z,15.46
2022-10-30T21:20:33.654Z,15.45
2022-10-30T21:23:00.631Z,15.40
2022-10-30T21:25:27.235Z,15.34
2022-10-30T21:27:57.022Z,15.35
2022-10-30T21:30:24.381Z,15.29
2022-10-30T21:32:50.942Z,15.29
2022-10-30T21:35:18.291Z,15.23
2022-10-30T21:37:44.890Z,15.14
2022-10-30T21:40:12.227Z,15.13
2022-10-30T21:42:38.800Z,15.12
2022-10-30T21:45:06.185Z,15.11
2022-10-30T21:47:32.806Z,15.13
2022-10-30T21:49:59.357Z,15.05
2022-10-30T21:52:26.160Z,15.04
2022-10-30T21:54:52.757Z,15.02
2022-10-30T21:57:19.431Z,15.01
2022-10-30T21:59:46.030Z,15.03
2022-10-30T22:02:15.533Z,15.06
2022-10-30T22:04:42.247Z,15.15
2022-10-30T22:07:08.901Z,15.26
2022-10-30T22:09:35.512Z,15.34
2022-10-30T22:12:02.054Z,15.40
2022-10-30T22:14:29.365Z,15.52
2022-10-30T22:16:56.094Z,15.63
2022-10-30T22:19:22.663Z,15.73
2022-10-30T22:21:49.200Z,15.85
2022-10-30T22:24:17.078Z,15.89
2022-10-30T22:26:43.798Z,15.97
2022-10-30T22:29:11.760Z,16.15
2022-10-30T22:31:38.304Z,16.20
2022-10-30T22:34:04.877Z,16.32
2022-10-30T22:36:33.111Z,16.48
2022-10-30T22:39:02.466Z,16.66
2022-10-30T22:41:32.889Z,16.77
2022-10-30T22:44:07.868Z,16.84
2022-10-30T22:46:35.407Z,16.87
2022-10-30T22:49:02.036Z,16.90
2022-10-30T22:51:32.440Z,16.92
2022-10-30T22:54:01.903Z,16.93
2022-10-30T22:56:30.964Z,16.91
2022-10-30T22:59:00.158Z,16.79
2022-10-30T23:01:29.663Z,16.84
2022-10-30T23:03:58.385Z,16.84
2022-10-30T23:06:25.744Z,16.75
2022-10-30T23:08:53.914Z,16.63
2022-10-30T23:11:20.616Z,16.62
2022-10-30T23:13:48.155Z,16.65
2022-10-30T23:16:17.761Z,16.61
2022-10-30T23:18:44.953Z,16.55
2022-10-30T23:21:14.740Z,16.57
2022-10-30T23:23:42.166Z,16.55
2022-10-30T23:26:15.098Z,16.64
2022-10-30T23:28:42.616Z,16.59
2022-10-30T23:31:36.842Z,16.66
2022-10-30T23:34:06.703Z,16.70
2022-10-30T23:36:33.681Z,16.68
2022-10-30T23:39:02.274Z,16.69
2022-10-30T23:41:31.297Z,16.68
2022-10-30T23:44:00.038Z,16.75
2022-10-30T23:46:26.955Z,16.71
2022-10-30T23:48:54.064Z,16.77
2022-10-30T23:51:21.057Z,16.78
2022-10-30T23:53:48.022Z,16.76
2022-10-30T23:56:15.236Z,16.65
2022-10-30T23:58:46.026Z,16.62
